TAP1922 LPPR-LPPT
Flight info
| Callsign | TAP1922 |
|---|---|
| Flight time | 0h 40m |
| Altitude | 31000 |
| Route | MANIK DCT ABRIL DCT XAMAX |
| Aircraft | A320/M-SDE3FGHIRWY/LB1 |
Departure
| Time | 2026-05-04 14:27 |
|---|---|
| Airport | Francisco de Sá Carneiro Airport (LPPR) |
Arrival
| Time | 2026-05-04 15:08 |
|---|---|
| Airport | Lisbon Humberto Delgado Airport (LPPT) |
| Time | Latitude | Longitude | Altitude | Speed | Heading |
|---|---|---|---|---|---|
| 2026-05-04 14:06 | 41.23548 | -8.67232 | 245 ft | 0 kts | 109° |
| 2026-05-04 14:19 | 41.23550 | -8.67241 | 245 ft | 4 kts | 111° |
| 2026-05-04 14:20 | 41.23562 | -8.67273 | 245 ft | 4 kts | 124° |
| 2026-05-04 14:20 | 41.23579 | -8.67301 | 243 ft | 4 kts | 140° |
| 2026-05-04 14:20 | 41.23601 | -8.67320 | 242 ft | 4 kts | 158° |
| 2026-05-04 14:21 | 41.23620 | -8.67328 | 242 ft | 0 kts | 167° |
| 2026-05-04 14:22 | 41.23609 | -8.67355 | 241 ft | 6 kts | 261° |
| 2026-05-04 14:23 | 41.23626 | -8.67515 | 235 ft | 11 kts | 261° |
| 2026-05-04 14:23 | 41.23616 | -8.67584 | 233 ft | 0 kts | 259° |
| 2026-05-04 14:24 | 41.23615 | -8.67587 | 233 ft | 4 kts | 258° |
| 2026-05-04 14:24 | 41.23604 | -8.67664 | 234 ft | 0 kts | 259° |
| 2026-05-04 14:25 | 41.23598 | -8.67705 | 233 ft | 13 kts | 259° |
| 2026-05-04 14:25 | 41.23618 | -8.67813 | 233 ft | 12 kts | 327° |
| 2026-05-04 14:26 | 41.23640 | -8.67820 | 231 ft | 0 kts | 349° |
| 2026-05-04 14:27 | 41.23645 | -8.67821 | 231 ft | 10 kts | 349° |
| 2026-05-04 14:27 | 41.24011 | -8.67917 | 222 ft | 99 kts | 348° |
| 2026-05-04 14:27 | 41.24965 | -8.68168 | 262 ft | 169 kts | 348° |
| 2026-05-04 14:27 | 41.26113 | -8.68474 | 1179 ft | 171 kts | 349° |
| 2026-05-04 14:28 | 41.27307 | -8.68794 | 2034 ft | 182 kts | 349° |
| 2026-05-04 14:28 | 41.28625 | -8.69141 | 2421 ft | 203 kts | 349° |
| 2026-05-04 14:28 | 41.30092 | -8.69522 | 2771 ft | 228 kts | 349° |
| 2026-05-04 14:28 | 41.31724 | -8.69947 | 3317 ft | 249 kts | 349° |
| 2026-05-04 14:29 | 41.35270 | -8.70881 | 5035 ft | 265 kts | 349° |
| 2026-05-04 14:29 | 41.38905 | -8.71856 | 7008 ft | 270 kts | 342° |
| 2026-05-04 14:30 | 41.40525 | -8.73108 | 7821 ft | 274 kts | 313° |
| 2026-05-04 14:30 | 41.41528 | -8.75254 | 8681 ft | 277 kts | 287° |
| 2026-05-04 14:30 | 41.41197 | -8.80251 | 10408 ft | 281 kts | 239° |
| 2026-05-04 14:31 | 41.39897 | -8.82206 | 11164 ft | 292 kts | 218° |
| 2026-05-04 14:31 | 41.35631 | -8.83178 | 11692 ft | 349 kts | 174° |
| 2026-05-04 14:32 | 41.30690 | -8.82060 | 12921 ft | 366 kts | 173° |
| 2026-05-04 14:32 | 41.28172 | -8.81442 | 13651 ft | 370 kts | 173° |
| 2026-05-04 14:32 | 41.25657 | -8.80834 | 14365 ft | 374 kts | 173° |
| 2026-05-04 14:32 | 41.23083 | -8.80228 | 15063 ft | 377 kts | 173° |
| 2026-05-04 14:33 | 41.20481 | -8.79629 | 15731 ft | 381 kts | 173° |
| 2026-05-04 14:33 | 41.17856 | -8.79034 | 16385 ft | 385 kts | 173° |
| 2026-05-04 14:33 | 41.15203 | -8.78435 | 17015 ft | 388 kts | 173° |
| 2026-05-04 14:33 | 41.12524 | -8.77832 | 17617 ft | 392 kts | 174° |
| 2026-05-04 14:34 | 41.10737 | -8.77432 | 18004 ft | 394 kts | 174° |
| 2026-05-04 14:34 | 41.08016 | -8.76824 | 18581 ft | 398 kts | 174° |
| 2026-05-04 14:34 | 41.05276 | -8.76211 | 19149 ft | 401 kts | 173° |
| 2026-05-04 14:34 | 41.02508 | -8.75592 | 19714 ft | 404 kts | 173° |
| 2026-05-04 14:35 | 40.99723 | -8.74970 | 20249 ft | 407 kts | 173° |
| 2026-05-04 14:35 | 40.96916 | -8.74342 | 20773 ft | 410 kts | 173° |
| 2026-05-04 14:35 | 40.94090 | -8.73710 | 21280 ft | 414 kts | 173° |
| 2026-05-04 14:35 | 40.91242 | -8.73072 | 21774 ft | 416 kts | 173° |
| 2026-05-04 14:36 | 40.88376 | -8.72434 | 22252 ft | 419 kts | 173° |
| 2026-05-04 14:36 | 40.85486 | -8.71788 | 22721 ft | 422 kts | 173° |
| 2026-05-04 14:36 | 40.82579 | -8.71136 | 23122 ft | 425 kts | 173° |
| 2026-05-04 14:36 | 40.79660 | -8.70485 | 23230 ft | 429 kts | 173° |
| 2026-05-04 14:37 | 40.76668 | -8.69823 | 23252 ft | 441 kts | 173° |
| 2026-05-04 14:37 | 40.73665 | -8.69155 | 23244 ft | 445 kts | 173° |
| 2026-05-04 14:37 | 40.70605 | -8.68469 | 23250 ft | 447 kts | 173° |
| 2026-05-04 14:37 | 40.67537 | -8.67782 | 23249 ft | 447 kts | 173° |
| 2026-05-04 14:38 | 40.64472 | -8.67098 | 23249 ft | 447 kts | 173° |
| 2026-05-04 14:38 | 40.61404 | -8.66418 | 23251 ft | 447 kts | 173° |
| 2026-05-04 14:38 | 40.58338 | -8.65741 | 23246 ft | 447 kts | 173° |
| 2026-05-04 14:38 | 40.55272 | -8.65064 | 23250 ft | 447 kts | 173° |
| 2026-05-04 14:39 | 40.52208 | -8.64390 | 23247 ft | 447 kts | 173° |
| 2026-05-04 14:39 | 40.49137 | -8.63714 | 23249 ft | 447 kts | 173° |
| 2026-05-04 14:39 | 40.46072 | -8.63040 | 23248 ft | 447 kts | 173° |
| 2026-05-04 14:40 | 40.39943 | -8.61696 | 23244 ft | 446 kts | 173° |
| 2026-05-04 14:40 | 40.36876 | -8.61021 | 23239 ft | 446 kts | 172° |
| 2026-05-04 14:40 | 40.33815 | -8.60343 | 23237 ft | 446 kts | 172° |
| 2026-05-04 14:40 | 40.30755 | -8.59665 | 23236 ft | 446 kts | 172° |
| 2026-05-04 14:41 | 40.27686 | -8.58987 | 23236 ft | 446 kts | 172° |
| 2026-05-04 14:41 | 40.24622 | -8.58315 | 23237 ft | 447 kts | 173° |
| 2026-05-04 14:41 | 40.18489 | -8.56979 | 23238 ft | 447 kts | 172° |
| 2026-05-04 14:42 | 40.12349 | -8.55637 | 23239 ft | 447 kts | 172° |
| 2026-05-04 14:42 | 40.09285 | -8.54967 | 23239 ft | 447 kts | 172° |
| 2026-05-04 14:42 | 40.06215 | -8.54297 | 23239 ft | 447 kts | 172° |
| 2026-05-04 14:43 | 40.03144 | -8.53653 | 23239 ft | 446 kts | 175° |
| 2026-05-04 14:43 | 40.00052 | -8.53355 | 23240 ft | 445 kts | 178° |
| 2026-05-04 14:43 | 39.96964 | -8.53104 | 23239 ft | 445 kts | 178° |
| 2026-05-04 14:43 | 39.93873 | -8.52853 | 23232 ft | 445 kts | 178° |
| 2026-05-04 14:44 | 39.90780 | -8.52599 | 23234 ft | 445 kts | 178° |
| 2026-05-04 14:44 | 39.87679 | -8.52341 | 23235 ft | 446 kts | 178° |
| 2026-05-04 14:44 | 39.84626 | -8.52084 | 23235 ft | 446 kts | 178° |
| 2026-05-04 14:44 | 39.81528 | -8.51828 | 23236 ft | 445 kts | 179° |
| 2026-05-04 14:45 | 39.78439 | -8.51925 | 23232 ft | 443 kts | 188° |
| 2026-05-04 14:45 | 39.75431 | -8.52683 | 23233 ft | 441 kts | 198° |
| 2026-05-04 14:45 | 39.72556 | -8.54087 | 23234 ft | 439 kts | 207° |
| 2026-05-04 14:45 | 39.69949 | -8.56138 | 23235 ft | 437 kts | 219° |
| 2026-05-04 14:46 | 39.67691 | -8.58773 | 23233 ft | 436 kts | 224° |
| 2026-05-04 14:46 | 39.65469 | -8.61459 | 23232 ft | 437 kts | 224° |
| 2026-05-04 14:46 | 39.63252 | -8.64153 | 23231 ft | 437 kts | 224° |
| 2026-05-04 14:46 | 39.61042 | -8.66858 | 23233 ft | 437 kts | 224° |
| 2026-05-04 14:47 | 39.58838 | -8.69568 | 23233 ft | 437 kts | 224° |
| 2026-05-04 14:47 | 39.56631 | -8.72278 | 23232 ft | 437 kts | 224° |
| 2026-05-04 14:47 | 39.54420 | -8.74989 | 23233 ft | 437 kts | 224° |
| 2026-05-04 14:47 | 39.52210 | -8.77688 | 23233 ft | 437 kts | 224° |
| 2026-05-04 14:48 | 39.49992 | -8.80385 | 23232 ft | 437 kts | 224° |
| 2026-05-04 14:48 | 39.47774 | -8.83079 | 23229 ft | 437 kts | 224° |
| 2026-05-04 14:48 | 39.45562 | -8.85770 | 23231 ft | 437 kts | 224° |
| 2026-05-04 14:48 | 39.43347 | -8.88460 | 23228 ft | 437 kts | 224° |
| 2026-05-04 14:49 | 39.41132 | -8.91148 | 23220 ft | 436 kts | 224° |
| 2026-05-04 14:49 | 39.38920 | -8.93831 | 23226 ft | 436 kts | 224° |
| 2026-05-04 14:49 | 39.36708 | -8.96516 | 23225 ft | 436 kts | 224° |
| 2026-05-04 14:49 | 39.34491 | -8.99201 | 23225 ft | 437 kts | 224° |
| 2026-05-04 14:50 | 39.32273 | -9.01885 | 23227 ft | 437 kts | 224° |
| 2026-05-04 14:50 | 39.30054 | -9.04569 | 23228 ft | 437 kts | 224° |
| 2026-05-04 14:50 | 39.27834 | -9.07252 | 23223 ft | 437 kts | 224° |
| 2026-05-04 14:50 | 39.25617 | -9.09931 | 23222 ft | 437 kts | 224° |
| 2026-05-04 14:51 | 39.23429 | -9.12574 | 23219 ft | 437 kts | 224° |
| 2026-05-04 14:51 | 39.21211 | -9.15250 | 23217 ft | 435 kts | 224° |
| 2026-05-04 14:51 | 39.19043 | -9.17859 | 23227 ft | 420 kts | 224° |
| 2026-05-04 14:51 | 39.16915 | -9.20416 | 23230 ft | 416 kts | 224° |
| 2026-05-04 14:52 | 39.14801 | -9.22952 | 23219 ft | 415 kts | 224° |
| 2026-05-04 14:52 | 39.12688 | -9.25485 | 23220 ft | 413 kts | 224° |
| 2026-05-04 14:52 | 39.10655 | -9.27919 | 23129 ft | 384 kts | 224° |
| 2026-05-04 14:52 | 39.08766 | -9.30175 | 22954 ft | 358 kts | 224° |
| 2026-05-04 14:53 | 39.06980 | -9.32310 | 22423 ft | 346 kts | 224° |
| 2026-05-04 14:53 | 39.05234 | -9.34399 | 21733 ft | 340 kts | 224° |
| 2026-05-04 14:53 | 39.03513 | -9.36461 | 20999 ft | 335 kts | 224° |
| 2026-05-04 14:53 | 39.01817 | -9.38494 | 20270 ft | 331 kts | 224° |
| 2026-05-04 14:54 | 39.00135 | -9.40493 | 19544 ft | 328 kts | 221° |
| 2026-05-04 14:54 | 38.98201 | -9.41998 | 18841 ft | 326 kts | 202° |
| 2026-05-04 14:54 | 38.96053 | -9.42822 | 18114 ft | 325 kts | 197° |
| 2026-05-04 14:54 | 38.93881 | -9.43580 | 17411 ft | 322 kts | 197° |
| 2026-05-04 14:55 | 38.91728 | -9.44322 | 16735 ft | 319 kts | 197° |
| 2026-05-04 14:55 | 38.89593 | -9.45052 | 16056 ft | 316 kts | 197° |
| 2026-05-04 14:55 | 38.87484 | -9.45773 | 15393 ft | 313 kts | 197° |
| 2026-05-04 14:55 | 38.85393 | -9.46490 | 14746 ft | 309 kts | 197° |
| 2026-05-04 14:56 | 38.83322 | -9.47199 | 14101 ft | 307 kts | 197° |
| 2026-05-04 14:56 | 38.81270 | -9.47900 | 13449 ft | 303 kts | 197° |
| 2026-05-04 14:56 | 38.79240 | -9.48595 | 12809 ft | 301 kts | 197° |
| 2026-05-04 14:56 | 38.77228 | -9.49286 | 12151 ft | 298 kts | 197° |
| 2026-05-04 14:57 | 38.75237 | -9.49970 | 11494 ft | 295 kts | 197° |
| 2026-05-04 14:57 | 38.73263 | -9.50650 | 10862 ft | 291 kts | 196° |
| 2026-05-04 14:57 | 38.71328 | -9.51314 | 10325 ft | 285 kts | 196° |
| 2026-05-04 14:57 | 38.69433 | -9.51963 | 9797 ft | 279 kts | 196° |
| 2026-05-04 14:58 | 38.67580 | -9.52599 | 9278 ft | 273 kts | 195° |
| 2026-05-04 14:58 | 38.65768 | -9.53216 | 8767 ft | 267 kts | 195° |
| 2026-05-04 14:58 | 38.63993 | -9.53820 | 8343 ft | 258 kts | 195° |
| 2026-05-04 14:58 | 38.62297 | -9.54399 | 8228 ft | 250 kts | 195° |
| 2026-05-04 14:59 | 38.60590 | -9.54943 | 8206 ft | 265 kts | 188° |
| 2026-05-04 14:59 | 38.58699 | -9.54753 | 8094 ft | 280 kts | 160° |
| 2026-05-04 14:59 | 38.56226 | -9.51154 | 7309 ft | 283 kts | 100° |
| 2026-05-04 15:00 | 38.56280 | -9.48645 | 6821 ft | 285 kts | 81° |
| 2026-05-04 15:00 | 38.56580 | -9.46150 | 6422 ft | 282 kts | 81° |
| 2026-05-04 15:00 | 38.56884 | -9.43670 | 5930 ft | 283 kts | 81° |
| 2026-05-04 15:01 | 38.57476 | -9.38781 | 5161 ft | 276 kts | 81° |
| 2026-05-04 15:01 | 38.57760 | -9.36400 | 4818 ft | 271 kts | 82° |
| 2026-05-04 15:01 | 38.58037 | -9.34042 | 4670 ft | 258 kts | 82° |
| 2026-05-04 15:01 | 38.58291 | -9.31851 | 4497 ft | 246 kts | 81° |
| 2026-05-04 15:02 | 38.58529 | -9.29775 | 4380 ft | 226 kts | 81° |
| 2026-05-04 15:02 | 38.58748 | -9.27862 | 4292 ft | 208 kts | 81° |
| 2026-05-04 15:02 | 38.58949 | -9.26117 | 4209 ft | 190 kts | 79° |
| 2026-05-04 15:02 | 38.59394 | -9.24566 | 3977 ft | 183 kts | 58° |
| 2026-05-04 15:03 | 38.60198 | -9.23368 | 3791 ft | 174 kts | 38° |
| 2026-05-04 15:03 | 38.61216 | -9.22616 | 3569 ft | 167 kts | 22° |
| 2026-05-04 15:03 | 38.62263 | -9.22060 | 3370 ft | 158 kts | 22° |
| 2026-05-04 15:03 | 38.63254 | -9.21531 | 3167 ft | 151 kts | 22° |
| 2026-05-04 15:04 | 38.64200 | -9.21029 | 2975 ft | 145 kts | 22° |
| 2026-05-04 15:04 | 38.65125 | -9.20537 | 2784 ft | 143 kts | 22° |
| 2026-05-04 15:04 | 38.66027 | -9.20058 | 2618 ft | 139 kts | 25° |
| 2026-05-04 15:04 | 38.66921 | -9.19580 | 2423 ft | 139 kts | 25° |
| 2026-05-04 15:05 | 38.67810 | -9.19105 | 2232 ft | 139 kts | 24° |
| 2026-05-04 15:05 | 38.68702 | -9.18630 | 2040 ft | 141 kts | 24° |
| 2026-05-04 15:05 | 38.69610 | -9.18145 | 1848 ft | 142 kts | 24° |
| 2026-05-04 15:05 | 38.70526 | -9.17657 | 1670 ft | 142 kts | 22° |
| 2026-05-04 15:06 | 38.71438 | -9.17170 | 1463 ft | 141 kts | 22° |
| 2026-05-04 15:06 | 38.72331 | -9.16694 | 1281 ft | 137 kts | 22° |
| 2026-05-04 15:06 | 38.73203 | -9.16229 | 1089 ft | 135 kts | 21° |
| 2026-05-04 15:07 | 38.74930 | -9.15308 | 727 ft | 134 kts | 22° |
| 2026-05-04 15:07 | 38.75788 | -9.14848 | 555 ft | 133 kts | 21° |
| 2026-05-04 15:07 | 38.76643 | -9.14390 | 372 ft | 133 kts | 21° |
| 2026-05-04 15:07 | 38.77433 | -9.13954 | 368 ft | 110 kts | 18° |
| 2026-05-04 15:08 | 38.78001 | -9.13664 | 364 ft | 64 kts | 23° |
| 2026-05-04 15:08 | 38.78279 | -9.13482 | 367 ft | 36 kts | 38° |
| 2026-05-04 15:08 | 38.78376 | -9.13334 | 362 ft | 17 kts | 69° |
| 2026-05-04 15:08 | 38.78317 | -9.13269 | 359 ft | 13 kts | 193° |
| 2026-05-04 15:09 | 38.78232 | -9.13309 | 358 ft | 13 kts | 202° |
| 2026-05-04 15:09 | 38.78156 | -9.13350 | 358 ft | 12 kts | 203° |
| 2026-05-04 15:09 | 38.78071 | -9.13396 | 358 ft | 15 kts | 202° |
| 2026-05-04 15:10 | 38.77876 | -9.13497 | 356 ft | 15 kts | 200° |
| 2026-05-04 15:10 | 38.77767 | -9.13496 | 354 ft | 18 kts | 167° |
| 2026-05-04 15:10 | 38.77527 | -9.13431 | 344 ft | 21 kts | 167° |
| 2026-05-04 15:11 | 38.77382 | -9.13392 | 342 ft | 21 kts | 166° |
| 2026-05-04 15:11 | 38.77264 | -9.13362 | 347 ft | 13 kts | 167° |
| 2026-05-04 15:11 | 38.77181 | -9.13338 | 341 ft | 12 kts | 167° |
| 2026-05-04 15:11 | 38.77105 | -9.13316 | 341 ft | 11 kts | 167° |
| 2026-05-04 15:12 | 38.77035 | -9.13293 | 339 ft | 12 kts | 152° |
| 2026-05-04 15:12 | 38.77021 | -9.13193 | 339 ft | 10 kts | 114° |
| 2026-05-04 15:12 | 38.76972 | -9.13142 | 336 ft | 9 kts | 91° |
| 2026-05-04 15:12 | 38.76980 | -9.13093 | 337 ft | 4 kts | 74° |
| 2026-05-04 15:13 | 38.76982 | -9.13082 | 337 ft | 1 kts | 77° |
| 2026-05-04 15:13 | 38.76982 | -9.13079 | 336 ft | 0 kts | 77° |